Time;durP1;ratioP1;P1;durP2;ratioP2;P2;SDS_P1;SDS_P2;PMS_P1;PMS_P2;Temp;Humidity;BMP_temperature;BMP_pressure;BME280_temperature;BME280_humidity;BME280_pressure;Samples;Min_cycle;Max_cycle;Signal;HPM_P1;HPM_P2
2023/03/19 00:00:32;;;;;;;;;;;9.70;99.90;;;;;;5053635;28;19913;-64
2023/03/19 00:02:57;;;;;;;;;;;9.60;99.90;;;;;;5059552;28;19913;-63
2023/03/19 00:05:23;;;;;;;;;;;9.60;99.90;;;;;;5047842;28;19935;-63
2023/03/19 00:07:48;;;;;;;;;;;9.60;99.90;;;;;;5049373;28;19913;-64
2023/03/19 00:10:14;;;;;;;;;;;9.50;99.90;;;;;;5048257;28;19943;-64
2023/03/19 00:12:40;;;;;;;;;;;9.50;99.90;;;;;;5054493;28;20287;-63
2023/03/19 00:15:07;;;;;;;;;;;9.50;99.90;;;;;;5049076;28;19916;-63
2023/03/19 00:17:33;;;;;;;;;;;9.50;99.90;;;;;;5051995;28;19965;-63
2023/03/19 00:19:59;;;;;;;;;;;9.40;99.90;;;;;;5051313;28;19917;-63
2023/03/19 00:22:24;;;;;;;;;;;9.40;99.90;;;;;;5056462;28;19920;-63
2023/03/19 00:24:51;;;;;;;;;;;9.30;99.90;;;;;;5052179;28;19919;-63
2023/03/19 00:27:16;;;;;;;;;;;9.30;99.90;;;;;;5048402;28;20297;-63
2023/03/19 00:29:42;;;;;;;;;;;9.20;99.90;;;;;;5037862;28;19982;-63
2023/03/19 00:32:08;;;;;;;;;;;9.20;99.90;;;;;;5042214;28;19956;-64
2023/03/19 00:34:33;;;;;;;;;;;9.20;99.90;;;;;;5062340;28;21174;-64
2023/03/19 00:36:59;;;;;;;;;;;9.10;99.90;;;;;;5044052;28;19920;-63
2023/03/19 00:39:25;;;;;;;;;;;9.10;99.90;;;;;;5034063;28;19920;-64
2023/03/19 00:41:51;;;;;;;;;;;9.20;99.90;;;;;;5047040;28;19920;-64
2023/03/19 00:44:19;;;;;;;;;;;9.30;99.90;;;;;;5038161;28;20316;-63
2023/03/19 00:46:45;;;;;;;;;;;9.40;99.90;;;;;;5037581;28;19913;-63
2023/03/19 00:49:11;;;;;;;;;;;9.50;99.90;;;;;;5038330;28;19913;-63
2023/03/19 00:51:37;;;;;;;;;;;9.60;99.90;;;;;;5033361;28;19958;-63
2023/03/19 00:54:02;;;;;;;;;;;9.60;99.90;;;;;;5033542;28;19919;-64
2023/03/19 00:56:28;;;;;;;;;;;9.70;99.90;;;;;;5048911;28;19920;-64
2023/03/19 00:58:55;;;;;;;;;;;9.80;99.90;;;;;;5065328;28;19920;-64
2023/03/19 01:01:21;;;;;;;;;;;9.80;99.90;;;;;;5060714;28;19912;-63
2023/03/19 01:03:47;;;;;;;;;;;9.80;99.90;;;;;;5066337;28;19926;-64
2023/03/19 01:06:12;;;;;;;;;;;9.80;99.90;;;;;;5054235;28;19913;-63
2023/03/19 01:08:38;;;;;;;;;;;9.70;99.90;;;;;;5058248;28;19924;-63
2023/03/19 01:11:17;;;;;;;;;;;9.70;99.90;;;;;;5057831;28;19917;-63
2023/03/19 01:13:43;;;;;;;;;;;9.70;99.90;;;;;;5057629;28;20007;-63
2023/03/19 01:16:09;;;;;;;;;;;9.70;99.90;;;;;;5065476;28;20004;-63
2023/03/19 01:18:35;;;;;;;;;;;9.70;99.90;;;;;;5056734;28;19928;-63
2023/03/19 01:21:00;;;;;;;;;;;9.80;99.90;;;;;;5055884;28;19913;-63
2023/03/19 01:23:26;;;;;;;;;;;9.80;99.90;;;;;;5052297;28;20014;-63
2023/03/19 01:25:52;;;;;;;;;;;9.90;99.90;;;;;;5057262;28;19920;-63
2023/03/19 01:28:17;;;;;;;;;;;9.90;99.90;;;;;;5060804;28;19927;-63
2023/03/19 01:30:43;;;;;;;;;;;9.90;99.90;;;;;;5051355;28;19921;-63
2023/03/19 01:33:09;;;;;;;;;;;9.90;99.90;;;;;;5065906;28;19912;-63
2023/03/19 01:35:35;;;;;;;;;;;10.00;99.90;;;;;;5055170;28;19921;-63
2023/03/19 01:38:00;;;;;;;;;;;10.00;99.90;;;;;;5054303;28;20284;-63
2023/03/19 01:40:26;;;;;;;;;;;10.10;99.90;;;;;;5058491;28;19913;-63
2023/03/19 01:42:53;;;;;;;;;;;10.10;99.90;;;;;;5070112;28;20019;-64
2023/03/19 01:45:28;;;;;;;;;;;10.20;99.90;;;;;;5057299;28;19912;-63
2023/03/19 01:47:54;;;;;;;;;;;10.20;99.90;;;;;;5056713;28;19913;-64
2023/03/19 01:50:24;;;;;;;;;;;10.20;99.90;;;;;;5059861;28;19924;-64
2023/03/19 01:52:50;;;;;;;;;;;10.20;99.90;;;;;;5057929;28;19917;-63
2023/03/19 01:55:16;;;;;;;;;;;10.30;99.90;;;;;;5063845;28;19913;-63
2023/03/19 01:57:41;;;;;;;;;;;10.30;99.90;;;;;;5066558;28;19919;-63
2023/03/19 02:00:07;;;;;;;;;;;10.30;99.90;;;;;;5067954;28;20371;-64
2023/03/19 02:02:34;;;;;;;;;;;10.40;99.90;;;;;;5059693;28;19913;-63
2023/03/19 02:05:02;;;;;;;;;;;10.40;99.90;;;;;;5063326;28;19912;-64
2023/03/19 02:07:29;;;;;;;;;;;10.40;99.90;;;;;;5052046;28;19926;-63
2023/03/19 02:09:55;;;;;;;;;;;10.40;99.90;;;;;;5069252;28;19912;-64
2023/03/19 02:12:21;;;;;;;;;;;10.40;99.90;;;;;;5055982;28;19956;-64
2023/03/19 02:14:47;;;;;;;;;;;10.40;99.90;;;;;;5057461;28;19943;-64
2023/03/19 02:17:12;;;;;;;;;;;10.40;99.90;;;;;;5058541;28;20413;-63
2023/03/19 02:19:47;;;;;;;;;;;10.40;99.90;;;;;;5039389;28;20015;-63
2023/03/19 02:22:15;;;;;;;;;;;10.40;99.90;;;;;;5047870;28;19913;-63
2023/03/19 02:24:47;;;;;;;;;;;10.50;99.90;;;;;;5063286;28;19919;-63
2023/03/19 02:27:13;;;;;;;;;;;10.50;99.90;;;;;;5037236;28;19967;-63
2023/03/19 02:29:38;;;;;;;;;;;10.50;99.90;;;;;;5049943;28;19916;-63
2023/03/19 02:32:04;;;;;;;;;;;10.50;99.90;;;;;;5061332;28;20369;-63
2023/03/19 02:34:31;;;;;;;;;;;10.60;99.90;;;;;;5062648;28;19912;-63
2023/03/19 02:36:59;;;;;;;;;;;10.60;99.90;;;;;;5057003;28;19969;-63
2023/03/19 02:39:28;;;;;;;;;;;10.60;99.90;;;;;;5054460;28;19913;-63
2023/03/19 02:41:56;;;;;;;;;;;10.60;99.90;;;;;;5047313;28;19913;-63
2023/03/19 02:44:21;;;;;;;;;;;10.60;99.90;;;;;;5042891;28;19967;-64
2023/03/19 02:46:47;;;;;;;;;;;10.60;99.90;;;;;;5049259;28;19921;-63
2023/03/19 02:49:12;;;;;;;;;;;10.60;99.90;;;;;;5055799;28;19913;-64
2023/03/19 02:51:38;;;;;;;;;;;10.70;99.90;;;;;;5057836;28;19921;-63
2023/03/19 02:54:04;;;;;;;;;;;10.70;99.90;;;;;;5055289;28;19913;-63
2023/03/19 02:56:30;;;;;;;;;;;10.70;99.90;;;;;;5050974;28;20380;-63
2023/03/19 02:58:55;;;;;;;;;;;10.50;99.90;;;;;;5061908;28;19951;-62
2023/03/19 03:01:21;;;;;;;;;;;10.40;99.90;;;;;;5059842;28;19947;-62
2023/03/19 03:03:48;;;;;;;;;;;10.30;99.90;;;;;;5055307;28;20430;-62
2023/03/19 03:06:16;;;;;;;;;;;10.30;99.90;;;;;;5060998;28;19913;-62
2023/03/19 03:08:42;;;;;;;;;;;10.10;99.90;;;;;;5052538;28;19967;-62
2023/03/19 03:11:08;;;;;;;;;;;10.00;99.90;;;;;;5063522;28;19920;-62
2023/03/19 03:13:34;;;;;;;;;;;10.00;99.90;;;;;;5051023;28;20276;-62
2023/03/19 03:16:00;;;;;;;;;;;9.90;99.90;;;;;;5050568;28;19914;-62
2023/03/19 03:18:26;;;;;;;;;;;9.90;99.90;;;;;;5048757;28;20012;-62
2023/03/19 03:20:52;;;;;;;;;;;9.80;99.90;;;;;;5050510;28;19970;-62
2023/03/19 03:23:20;;;;;;;;;;;9.80;99.90;;;;;;5048499;28;20213;-63
2023/03/19 03:25:50;;;;;;;;;;;9.70;99.90;;;;;;5048667;28;20011;-62
2023/03/19 03:28:16;;;;;;;;;;;9.60;99.90;;;;;;5052284;28;19951;-62
2023/03/19 03:30:42;;;;;;;;;;;9.50;99.90;;;;;;5054340;28;20339;-62
2023/03/19 03:33:09;;;;;;;;;;;9.30;99.90;;;;;;5054405;28;19913;-62
2023/03/19 03:35:35;;;;;;;;;;;9.20;99.90;;;;;;5045569;28;20811;-62
2023/03/19 03:38:01;;;;;;;;;;;9.00;99.90;;;;;;5046373;28;19912;-62
2023/03/19 03:40:27;;;;;;;;;;;9.00;99.90;;;;;;5047919;28;19919;-63
2023/03/19 03:42:52;;;;;;;;;;;9.00;99.90;;;;;;5059088;28;20007;-63
2023/03/19 03:45:18;;;;;;;;;;;9.00;99.90;;;;;;5052415;28;19913;-63
2023/03/19 03:47:44;;;;;;;;;;;9.00;99.90;;;;;;5049205;28;19913;-63
2023/03/19 03:50:10;;;;;;;;;;;9.00;99.90;;;;;;5035985;28;19919;-63
2023/03/19 03:52:36;;;;;;;;;;;9.00;99.90;;;;;;5059325;28;19924;-64
2023/03/19 03:55:02;;;;;;;;;;;9.00;99.90;;;;;;5047269;28;19913;-63
2023/03/19 03:57:28;;;;;;;;;;;9.00;99.90;;;;;;5058919;28;20288;-63
2023/03/19 03:59:53;;;;;;;;;;;9.00;99.90;;;;;;5049512;28;19924;-63
2023/03/19 04:02:19;;;;;;;;;;;9.00;99.90;;;;;;5049541;28;19999;-63
2023/03/19 04:04:45;;;;;;;;;;;9.00;99.90;;;;;;5054958;28;19919;-63
2023/03/19 04:07:11;;;;;;;;;;;8.90;99.90;;;;;;5060388;28;19982;-62
2023/03/19 04:09:36;;;;;;;;;;;8.90;99.90;;;;;;5044598;28;19913;-63
2023/03/19 04:12:02;;;;;;;;;;;8.80;99.90;;;;;;5045257;28;20388;-63
2023/03/19 04:14:28;;;;;;;;;;;8.80;99.90;;;;;;5055198;28;19916;-63
2023/03/19 04:16:54;;;;;;;;;;;8.80;99.90;;;;;;5050878;28;19913;-63
2023/03/19 04:19:20;;;;;;;;;;;8.70;99.90;;;;;;5054379;28;19927;-62
2023/03/19 04:21:45;;;;;;;;;;;8.70;99.90;;;;;;5050658;28;20261;-62
2023/03/19 04:24:11;;;;;;;;;;;8.70;99.90;;;;;;5058694;28;19947;-62
2023/03/19 04:26:37;;;;;;;;;;;8.60;99.90;;;;;;5040208;28;20361;-62
2023/03/19 04:29:03;;;;;;;;;;;8.60;99.90;;;;;;5051972;28;19921;-63
2023/03/19 04:31:28;;;;;;;;;;;8.50;99.90;;;;;;5060963;28;19975;-61
2023/03/19 04:33:54;;;;;;;;;;;8.50;99.90;;;;;;5056251;28;19913;-62
2023/03/19 04:36:20;;;;;;;;;;;8.50;99.90;;;;;;5059199;28;19921;-63
2023/03/19 04:38:45;;;;;;;;;;;8.50;99.90;;;;;;5047489;28;19983;-63
2023/03/19 04:41:12;;;;;;;;;;;8.40;99.90;;;;;;5058544;28;20360;-63
2023/03/19 04:43:38;;;;;;;;;;;8.40;99.90;;;;;;5046635;28;19920;-63
2023/03/19 04:46:05;;;;;;;;;;;8.30;99.90;;;;;;5050315;28;20283;-63
2023/03/19 04:48:32;;;;;;;;;;;8.30;99.90;;;;;;5053291;28;19912;-63
2023/03/19 04:50:58;;;;;;;;;;;8.30;99.90;;;;;;5050295;28;19928;-63
2023/03/19 04:53:23;;;;;;;;;;;8.20;99.90;;;;;;5047889;28;19912;-63
2023/03/19 04:55:50;;;;;;;;;;;8.20;99.90;;;;;;5050575;28;19913;-63
2023/03/19 04:58:16;;;;;;;;;;;8.20;99.90;;;;;;5053485;28;20019;-63
2023/03/19 05:00:44;;;;;;;;;;;8.20;99.90;;;;;;5054289;28;19920;-63
2023/03/19 05:03:10;;;;;;;;;;;8.20;99.90;;;;;;5053379;28;20368;-63
2023/03/19 05:05:35;;;;;;;;;;;8.20;99.90;;;;;;5038327;28;19920;-63
2023/03/19 05:08:02;;;;;;;;;;;8.10;99.90;;;;;;5041015;28;19912;-63
2023/03/19 05:10:31;;;;;;;;;;;8.20;99.90;;;;;;5043086;28;19982;-63
2023/03/19 05:12:56;;;;;;;;;;;8.20;99.90;;;;;;5051433;28;19917;-63
2023/03/19 05:15:22;;;;;;;;;;;8.10;99.90;;;;;;5046673;28;20007;-64
2023/03/19 05:17:47;;;;;;;;;;;8.10;99.90;;;;;;5047111;28;20414;-64
2023/03/19 05:20:14;;;;;;;;;;;8.20;99.90;;;;;;5045670;28;19919;-63
2023/03/19 05:22:40;;;;;;;;;;;8.10;99.90;;;;;;5044467;28;20399;-64
2023/03/19 05:25:06;;;;;;;;;;;8.10;99.90;;;;;;5044561;28;19913;-63
2023/03/19 05:27:32;;;;;;;;;;;8.10;99.90;;;;;;5044508;28;19920;-62
2023/03/19 05:29:59;;;;;;;;;;;8.10;99.90;;;;;;5046707;28;20013;-62
2023/03/19 05:32:24;;;;;;;;;;;8.10;99.90;;;;;;5043709;28;19928;-62
2023/03/19 05:34:50;;;;;;;;;;;8.20;99.90;;;;;;5052097;28;19912;-63
2023/03/19 05:37:17;;;;;;;;;;;8.20;99.90;;;;;;5043471;28;19913;-63
2023/03/19 05:39:42;;;;;;;;;;;8.20;99.90;;;;;;5042655;28;19957;-63
2023/03/19 05:42:08;;;;;;;;;;;8.10;99.90;;;;;;5052545;28;20450;-63
2023/03/19 05:44:34;;;;;;;;;;;8.10;99.90;;;;;;5050246;28;20350;-63
2023/03/19 05:46:59;;;;;;;;;;;8.10;99.90;;;;;;5054951;28;20012;-63
2023/03/19 05:49:25;;;;;;;;;;;8.10;99.90;;;;;;5049039;28;19959;-63
2023/03/19 05:51:50;;;;;;;;;;;7.90;99.90;;;;;;5051920;28;20411;-63
2023/03/19 05:54:16;;;;;;;;;;;7.80;99.90;;;;;;5047359;28;19913;-63
2023/03/19 05:56:42;;;;;;;;;;;7.70;99.90;;;;;;5054843;28;19919;-63
2023/03/19 05:59:08;;;;;;;;;;;7.60;99.90;;;;;;5055233;28;19916;-63
2023/03/19 06:01:34;;;;;;;;;;;7.50;99.90;;;;;;5055126;28;19914;-63
2023/03/19 06:04:00;;;;;;;;;;;7.40;99.90;;;;;;5047883;28;20023;-63
2023/03/19 06:06:26;;;;;;;;;;;7.30;99.90;;;;;;5040845;28;19956;-63
2023/03/19 06:08:52;;;;;;;;;;;7.10;99.90;;;;;;5048394;28;19938;-63
2023/03/19 06:11:18;;;;;;;;;;;7.10;99.90;;;;;;5044631;28;19924;-63
2023/03/19 06:13:45;;;;;;;;;;;7.00;99.90;;;;;;5042513;28;19917;-63
2023/03/19 06:16:10;;;;;;;;;;;6.90;99.90;;;;;;5037556;28;19975;-64
2023/03/19 06:18:37;;;;;;;;;;;6.80;99.90;;;;;;5059887;28;20407;-63
2023/03/19 06:21:03;;;;;;;;;;;6.70;99.90;;;;;;5049543;28;19952;-63
2023/03/19 06:23:29;;;;;;;;;;;6.60;99.90;;;;;;5045854;28;19958;-64
2023/03/19 06:25:55;;;;;;;;;;;6.60;99.90;;;;;;5054765;28;20325;-64
2023/03/19 06:28:21;;;;;;;;;;;6.50;99.90;;;;;;5045878;28;19989;-64
2023/03/19 06:30:46;;;;;;;;;;;6.40;99.90;;;;;;5045460;28;19917;-64
2023/03/19 06:33:13;;;;;;;;;;;6.40;99.90;;;;;;5057855;28;19923;-65
2023/03/19 06:35:38;;;;;;;;;;;6.40;99.90;;;;;;5048634;28;19913;-64
2023/03/19 06:38:05;;;;;;;;;;;6.40;99.90;;;;;;5055474;28;19913;-63
2023/03/19 06:40:30;;;;;;;;;;;6.40;99.90;;;;;;5048849;28;19979;-64
2023/03/19 06:42:56;;;;;;;;;;;6.40;99.90;;;;;;5050002;28;20384;-63
2023/03/19 06:45:22;;;;;;;;;;;6.30;99.90;;;;;;5048664;28;20326;-63
2023/03/19 06:47:47;;;;;;;;;;;6.40;99.90;;;;;;5054269;28;19916;-63
2023/03/19 06:50:15;;;;;;;;;;;6.40;99.90;;;;;;5043899;28;19913;-63
2023/03/19 06:52:40;;;;;;;;;;;6.50;99.90;;;;;;5049198;28;19913;-64
2023/03/19 06:55:07;;;;;;;;;;;6.40;99.90;;;;;;5044398;28;19917;-63
2023/03/19 06:57:32;;;;;;;;;;;6.50;99.90;;;;;;5049474;28;19967;-64
2023/03/19 06:59:58;;;;;;;;;;;6.40;99.90;;;;;;5050060;28;19987;-64
2023/03/19 07:02:25;;;;;;;;;;;6.40;99.90;;;;;;5052364;28;19917;-64
2023/03/19 07:04:51;;;;;;;;;;;6.40;99.90;;;;;;5053570;28;20372;-63
2023/03/19 07:07:17;;;;;;;;;;;6.50;99.90;;;;;;5052102;28;20053;-63
2023/03/19 07:09:42;;;;;;;;;;;6.50;99.90;;;;;;5056614;28;19963;-63
2023/03/19 07:12:09;;;;;;;;;;;6.50;99.90;;;;;;5043762;28;19921;-64
2023/03/19 07:14:34;;;;;;;;;;;6.50;99.90;;;;;;5045952;28;19913;-63
2023/03/19 07:17:00;;;;;;;;;;;6.50;99.90;;;;;;5052023;28;19935;-63
2023/03/19 07:19:27;;;;;;;;;;;6.50;99.90;;;;;;5046236;28;19920;-64
2023/03/19 07:21:53;;;;;;;;;;;6.60;99.90;;;;;;5047782;28;20413;-64
2023/03/19 07:24:18;;;;;;;;;;;6.70;99.90;;;;;;5044522;28;20441;-64
2023/03/19 07:26:45;;;;;;;;;;;6.80;99.90;;;;;;5047386;28;20207;-64
2023/03/19 07:29:11;;;;;;;;;;;6.90;99.90;;;;;;5043863;28;19913;-64
2023/03/19 07:31:36;;;;;;;;;;;7.00;99.90;;;;;;5051851;28;19925;-64
2023/03/19 07:34:02;;;;;;;;;;;7.00;99.90;;;;;;5048084;28;19920;-64
2023/03/19 07:36:27;;;;;;;;;;;7.00;99.90;;;;;;5054938;28;20375;-64
2023/03/19 07:38:53;;;;;;;;;;;7.10;99.90;;;;;;5053116;28;19912;-64
2023/03/19 07:41:19;;;;;;;;;;;7.20;99.90;;;;;;5045115;28;19912;-64
2023/03/19 07:43:44;;;;;;;;;;;7.20;99.90;;;;;;5044384;28;20039;-63
2023/03/19 07:46:13;;;;;;;;;;;7.20;99.90;;;;;;5051338;28;19917;-64
2023/03/19 07:48:39;;;;;;;;;;;7.20;99.90;;;;;;5050421;28;19912;-64
2023/03/19 07:51:05;;;;;;;;;;;7.20;99.90;;;;;;5048509;28;19920;-65
2023/03/19 07:53:31;;;;;;;;;;;7.20;99.90;;;;;;5040599;28;19970;-64
2023/03/19 07:55:57;;;;;;;;;;;7.30;99.90;;;;;;5048433;28;20288;-64
2023/03/19 07:58:23;;;;;;;;;;;7.40;99.90;;;;;;5036818;28;19913;-64
2023/03/19 08:00:48;;;;;;;;;;;7.30;99.90;;;;;;5044616;28;19923;-63
2023/03/19 08:03:14;;;;;;;;;;;7.40;99.90;;;;;;5045726;28;20418;-64
2023/03/19 08:05:40;;;;;;;;;;;7.40;99.90;;;;;;5048831;28;19920;-65
2023/03/19 08:08:06;;;;;;;;;;;7.40;99.90;;;;;;5046551;28;19912;-65
2023/03/19 08:10:32;;;;;;;;;;;7.40;99.90;;;;;;5037099;28;19917;-64
2023/03/19 08:12:57;;;;;;;;;;;7.40;99.90;;;;;;5039415;28;19920;-64
2023/03/19 08:15:23;;;;;;;;;;;7.40;99.90;;;;;;5048446;28;19919;-64
2023/03/19 08:17:56;;;;;;;;;;;7.40;99.90;;;;;;5047560;28;20369;-64
2023/03/19 08:20:21;;;;;;;;;;;7.40;99.90;;;;;;5046759;28;19999;-63
2023/03/19 08:22:50;;;;;;;;;;;7.40;99.90;;;;;;5048995;28;20352;-64
2023/03/19 08:25:15;;;;;;;;;;;7.40;99.90;;;;;;5052720;28;20003;-64
2023/03/19 08:27:41;;;;;;;;;;;7.40;99.90;;;;;;5044375;28;19995;-64
2023/03/19 08:30:09;;;;;;;;;;;7.40;99.90;;;;;;5038596;28;19913;-65
2023/03/19 08:32:35;;;;;;;;;;;7.50;99.90;;;;;;5030130;28;19940;-65
2023/03/19 08:35:01;;;;;;;;;;;7.50;99.90;;;;;;5052964;28;20258;-65
2023/03/19 08:37:27;;;;;;;;;;;7.50;99.90;;;;;;5042650;28;20323;-65
2023/03/19 08:39:53;;;;;;;;;;;7.50;99.90;;;;;;5044612;28;19968;-64
2023/03/19 08:42:19;;;;;;;;;;;7.50;99.90;;;;;;5046163;28;19921;-64
2023/03/19 08:44:45;;;;;;;;;;;7.60;99.90;;;;;;5051205;28;20007;-64
2023/03/19 08:47:11;;;;;;;;;;;7.60;99.90;;;;;;5043098;28;19944;-64
2023/03/19 08:49:37;;;;;;;;;;;7.70;99.90;;;;;;5044532;28;19916;-64
2023/03/19 08:52:03;;;;;;;;;;;7.70;99.90;;;;;;5043934;28;19975;-65
2023/03/19 08:54:28;;;;;;;;;;;7.80;99.90;;;;;;5053432;28;20289;-66
2023/03/19 08:56:54;;;;;;;;;;;8.00;99.90;;;;;;5049006;28;19928;-64
2023/03/19 08:59:20;;;;;;;;;;;8.00;99.90;;;;;;5047939;28;19913;-64
2023/03/19 09:01:49;;;;;;;;;;;8.10;99.90;;;;;;5049576;28;19975;-65
2023/03/19 09:04:15;;;;;;;;;;;8.20;99.90;;;;;;5051341;28;20114;-64
2023/03/19 09:06:41;;;;;;;;;;;8.30;99.90;;;;;;5051035;28;19936;-65
2023/03/19 09:09:07;;;;;;;;;;;8.40;99.90;;;;;;5054140;28;20349;-64
2023/03/19 09:11:32;;;;;;;;;;;8.50;99.90;;;;;;5038250;28;20006;-65
2023/03/19 09:13:58;;;;;;;;;;;8.70;99.90;;;;;;5038414;28;19964;-64
2023/03/19 09:16:25;;;;;;;;;;;8.70;99.90;;;;;;5055490;28;19913;-65
2023/03/19 09:18:50;;;;;;;;;;;8.80;99.90;;;;;;5053307;28;20343;-65
2023/03/19 09:21:16;;;;;;;;;;;9.20;99.90;;;;;;5060307;28;20060;-65
2023/03/19 09:23:41;;;;;;;;;;;9.30;99.90;;;;;;5044652;28;19913;-64
2023/03/19 09:26:07;;;;;;;;;;;9.50;99.90;;;;;;5061194;28;19928;-65
2023/03/19 09:28:33;;;;;;;;;;;9.40;99.90;;;;;;5046059;28;20260;-64
2023/03/19 09:30:59;;;;;;;;;;;9.40;99.90;;;;;;5049469;28;19921;-64
2023/03/19 09:33:24;;;;;;;;;;;9.40;99.90;;;;;;5055892;28;19924;-64
2023/03/19 09:35:51;;;;;;;;;;;9.50;99.90;;;;;;5044398;28;19917;-64
2023/03/19 09:38:17;;;;;;;;;;;9.50;99.90;;;;;;5054041;28;19920;-65
2023/03/19 09:40:46;;;;;;;;;;;9.40;99.90;;;;;;5052724;28;19913;-66
2023/03/19 09:43:35;;;;;;;;;;;9.50;99.90;;;;;;5065229;28;19924;-65
2023/03/19 09:46:03;;;;;;;;;;;9.60;99.90;;;;;;5050052;28;19920;-65
2023/03/19 09:48:32;;;;;;;;;;;10.00;99.90;;;;;;5051489;28;19917;-64
2023/03/19 09:50:59;;;;;;;;;;;9.90;99.90;;;;;;5047685;28;19917;-65
2023/03/19 09:53:43;;;;;;;;;;;9.70;99.90;;;;;;5057019;28;20436;-65
2023/03/19 09:56:13;;;;;;;;;;;9.60;99.90;;;;;;5058060;28;20022;-65
2023/03/19 09:58:38;;;;;;;;;;;9.50;99.90;;;;;;5042841;28;19990;-65
2023/03/19 10:01:04;;;;;;;;;;;9.40;99.90;;;;;;5040954;28;20364;-63
2023/03/19 10:03:29;;;;;;;;;;;9.40;99.90;;;;;;5066730;28;20372;-65
2023/03/19 10:06:13;;;;;;;;;;;9.60;99.90;;;;;;5044357;28;20004;-64
2023/03/19 10:08:48;;;;;;;;;;;9.90;99.90;;;;;;5045004;28;19912;-64
2023/03/19 10:11:26;;;;;;;;;;;10.30;99.90;;;;;;5042584;28;19928;-64
2023/03/19 10:13:58;;;;;;;;;;;10.40;99.90;;;;;;5038793;28;19932;-64
2023/03/19 10:16:25;;;;;;;;;;;10.40;99.90;;;;;;5049934;28;19955;-64
2023/03/19 10:18:52;;;;;;;;;;;10.30;99.90;;;;;;5056252;28;19965;-64
2023/03/19 10:21:21;;;;;;;;;;;10.30;99.90;;;;;;5043837;28;19928;-64
2023/03/19 10:23:49;;;;;;;;;;;10.30;99.90;;;;;;5046193;28;20299;-64
2023/03/19 10:26:16;;;;;;;;;;;10.10;99.90;;;;;;5053640;28;19913;-66
2023/03/19 10:28:43;;;;;;;;;;;10.20;99.90;;;;;;5050975;28;19988;-65
2023/03/19 10:31:13;;;;;;;;;;;10.30;99.90;;;;;;5054918;28;19924;-65
2023/03/19 10:33:44;;;;;;;;;;;10.40;99.90;;;;;;5054031;28;19913;-65
2023/03/19 10:36:11;;;;;;;;;;;10.30;99.90;;;;;;5058140;28;19912;-65
2023/03/19 10:38:40;;;;;;;;;;;10.00;99.90;;;;;;5053975;28;19920;-64
2023/03/19 10:41:12;;;;;;;;;;;9.80;99.90;;;;;;5057288;28;19999;-65
2023/03/19 10:43:38;;;;;;;;;;;10.00;99.90;;;;;;5055563;28;19932;-64
2023/03/19 10:46:04;;;;;;;;;;;10.50;99.90;;;;;;5059023;28;19913;-64
2023/03/19 10:48:33;;;;;;;;;;;10.90;99.90;;;;;;5050373;28;19913;-64
2023/03/19 10:51:00;;;;;;;;;;;11.20;99.90;;;;;;5050516;28;19931;-64
2023/03/19 10:53:29;;;;;;;;;;;11.30;99.90;;;;;;5035695;28;19921;-64
2023/03/19 10:55:56;;;;;;;;;;;11.20;99.90;;;;;;5052843;28;19913;-64
2023/03/19 10:58:24;;;;;;;;;;;11.00;99.90;;;;;;5050352;28;19913;-63
2023/03/19 11:00:55;;;;;;;;;;;10.90;99.90;;;;;;5050285;28;19948;-71
2023/03/19 11:03:32;;;;;;;;;;;10.80;99.90;;;;;;5047984;28;19924;-70
2023/03/19 11:06:08;;;;;;;;;;;10.80;99.90;;;;;;5042601;28;19913;-69
2023/03/19 11:08:35;;;;;;;;;;;10.90;99.90;;;;;;5044764;28;20372;-70
2023/03/19 11:11:01;;;;;;;;;;;10.90;99.90;;;;;;5050043;28;19974;-70
2023/03/19 11:13:27;;;;;;;;;;;10.90;99.90;;;;;;5046278;28;19913;-69
2023/03/19 11:15:57;;;;;;;;;;;11.00;99.90;;;;;;5049028;28;20267;-70
2023/03/19 11:18:23;;;;;;;;;;;11.20;99.90;;;;;;5039551;28;19920;-69
2023/03/19 11:20:54;;;;;;;;;;;11.40;99.90;;;;;;5048939;28;19916;-68
2023/03/19 11:23:20;;;;;;;;;;;11.60;99.90;;;;;;5046969;28;19958;-69
2023/03/19 11:25:52;;;;;;;;;;;11.80;99.90;;;;;;5047965;28;19913;-70
2023/03/19 11:28:20;;;;;;;;;;;11.70;99.90;;;;;;5042981;28;19959;-70
2023/03/19 11:31:04;;;;;;;;;;;11.50;99.90;;;;;;5036096;28;19917;-70
2023/03/19 11:33:30;;;;;;;;;;;11.40;99.90;;;;;;5039584;28;20000;-66
2023/03/19 11:36:01;;;;;;;;;;;11.70;99.90;;;;;;5036895;28;19966;-70
2023/03/19 11:38:39;;;;;;;;;;;11.70;99.90;;;;;;5038669;28;20026;-70
2023/03/19 11:41:22;;;;;;;;;;;12.00;99.90;;;;;;5057483;28;19919;-69
2023/03/19 11:43:55;;;;;;;;;;;12.30;99.90;;;;;;5060601;28;19966;-69
2023/03/19 11:46:43;;;;;;;;;;;12.60;99.90;;;;;;5063203;28;19913;-70
2023/03/19 11:49:08;;;;;;;;;;;12.70;99.90;;;;;;5056874;28;19917;-67
2023/03/19 11:52:00;;;;;;;;;;;12.50;99.90;;;;;;5062802;28;19920;-69
2023/03/19 11:54:31;;;;;;;;;;;12.20;99.90;;;;;;5048642;28;19916;-68
2023/03/19 11:57:03;;;;;;;;;;;12.10;99.90;;;;;;5037594;28;19913;-69
2023/03/19 11:59:31;;;;;;;;;;;12.40;99.90;;;;;;5038857;28;19966;-68
2023/03/19 12:02:20;;;;;;;;;;;12.90;99.90;;;;;;5050922;28;19913;-68
2023/03/19 12:04:57;;;;;;;;;;;13.40;99.90;;;;;;5047327;28;19912;-68
2023/03/19 12:07:28;;;;;;;;;;;14.30;99.90;;;;;;5051562;28;19913;-68
2023/03/19 12:10:00;;;;;;;;;;;14.90;99.90;;;;;;5043921;28;19964;-68
2023/03/19 12:12:46;;;;;;;;;;;15.10;99.90;;;;;;5057572;28;19928;-69
2023/03/19 12:15:21;;;;;;;;;;;14.30;99.90;;;;;;5067053;28;20483;-69
2023/03/19 12:17:49;;;;;;;;;;;15.20;99.90;;;;;;5062551;28;19935;-69
2023/03/19 12:20:44;;;;;;;;;;;15.40;99.90;;;;;;5051164;28;19920;-69
2023/03/19 12:23:10;;;;;;;;;;;14.30;99.90;;;;;;5028044;28;19919;-68
2023/03/19 12:25:39;;;;;;;;;;;13.60;99.90;;;;;;5058933;28;19916;-68
2023/03/19 12:28:13;;;;;;;;;;;13.20;99.90;;;;;;5051717;28;19999;-69
2023/03/19 12:30:58;;;;;;;;;;;12.90;99.90;;;;;;5046921;28;19928;-68
2023/03/19 12:33:35;;;;;;;;;;;12.70;99.90;;;;;;5057850;28;19920;-68
2023/03/19 12:36:04;;;;;;;;;;;12.70;99.90;;;;;;5049900;28;19966;-68
2023/03/19 12:38:44;;;;;;;;;;;12.90;99.90;;;;;;5051912;28;19963;-68
2023/03/19 12:41:13;;;;;;;;;;;13.00;99.90;;;;;;5055533;28;19920;-68
2023/03/19 12:43:50;;;;;;;;;;;13.10;99.90;;;;;;5053392;28;19925;-68
2023/03/19 12:46:20;;;;;;;;;;;13.10;99.90;;;;;;5052413;28;19913;-68
2023/03/19 12:48:50;;;;;;;;;;;13.20;99.90;;;;;;5053133;28;19944;-69
2023/03/19 12:51:19;;;;;;;;;;;12.80;99.90;;;;;;5060775;28;19924;-68
2023/03/19 12:54:13;;;;;;;;;;;13.10;99.90;;;;;;5054569;28;20372;-68
2023/03/19 12:56:46;;;;;;;;;;;13.00;99.90;;;;;;5047694;28;19935;-69
2023/03/19 12:59:15;;;;;;;;;;;12.80;99.90;;;;;;5044632;28;19967;-68
2023/03/19 13:01:45;;;;;;;;;;;12.50;99.90;;;;;;5053164;28;19913;-68
2023/03/19 13:04:22;;;;;;;;;;;12.50;99.90;;;;;;5065335;28;19928;-69
2023/03/19 13:06:53;;;;;;;;;;;12.30;99.90;;;;;;5043412;28;20485;-68
2023/03/19 13:09:35;;;;;;;;;;;12.20;99.90;;;;;;5059928;28;19917;-67
2023/03/19 13:12:09;;;;;;;;;;;12.10;99.90;;;;;;5055747;28;19921;-68
2023/03/19 13:14:43;;;;;;;;;;;12.00;99.90;;;;;;5053560;28;19999;-68
2023/03/19 13:17:15;;;;;;;;;;;11.90;99.90;;;;;;5067952;28;19916;-68
2023/03/19 13:19:45;;;;;;;;;;;11.90;99.90;;;;;;5060145;28;20360;-68
2023/03/19 13:22:13;;;;;;;;;;;11.90;99.90;;;;;;5068757;28;19919;-69
2023/03/19 13:24:40;;;;;;;;;;;11.70;99.90;;;;;;5058083;28;20280;-67
2023/03/19 13:27:07;;;;;;;;;;;11.80;99.90;;;;;;5069276;28;19923;-68
2023/03/19 13:29:37;;;;;;;;;;;11.80;99.90;;;;;;5061821;28;19912;-68
2023/03/19 13:32:22;;;;;;;;;;;11.80;99.90;;;;;;5050524;28;19924;-68
2023/03/19 13:34:48;;;;;;;;;;;11.70;99.90;;;;;;5059368;28;20380;-68
2023/03/19 13:37:15;;;;;;;;;;;11.70;99.90;;;;;;5060014;28;19919;-67
2023/03/19 13:39:41;;;;;;;;;;;11.80;99.90;;;;;;5057984;28;19969;-69
2023/03/19 13:42:25;;;;;;;;;;;11.90;99.90;;;;;;5051496;28;19960;-69
2023/03/19 13:44:56;;;;;;;;;;;12.10;99.90;;;;;;5062080;28;20299;-68
2023/03/19 13:47:43;;;;;;;;;;;12.30;99.90;;;;;;5061346;28;19957;-68
2023/03/19 13:50:23;;;;;;;;;;;12.20;99.90;;;;;;5058786;28;20007;-68
2023/03/19 13:52:49;;;;;;;;;;;12.30;99.90;;;;;;5054156;28;20331;-69
2023/03/19 13:55:25;;;;;;;;;;;12.40;99.90;;;;;;5056509;28;19936;-68
2023/03/19 14:01:02;;;;;;;;;;;12.40;99.90;;;;;;5060962;28;19919;-68
2023/03/19 14:03:31;;;;;;;;;;;12.50;99.90;;;;;;5067455;28;19920;-68
2023/03/19 14:05:58;;;;;;;;;;;12.30;99.90;;;;;;5065103;28;19967;-68
2023/03/19 14:08:25;;;;;;;;;;;12.00;99.90;;;;;;5070213;28;19964;-67
2023/03/19 14:10:53;;;;;;;;;;;11.70;99.90;;;;;;5061399;28;20291;-68
2023/03/19 14:13:30;;;;;;;;;;;12.00;99.90;;;;;;5063186;28;19970;-67
2023/03/19 14:16:02;;;;;;;;;;;12.00;99.90;;;;;;5061473;28;19912;-68
2023/03/19 14:18:28;;;;;;;;;;;12.40;99.90;;;;;;5052882;28;19936;-68
2023/03/19 14:21:04;;;;;;;;;;;12.30;99.90;;;;;;5055473;28;19920;-68
2023/03/19 14:23:32;;;;;;;;;;;12.20;99.90;;;;;;5043225;28;20427;-68
2023/03/19 14:26:05;;;;;;;;;;;12.10;99.90;;;;;;5063715;28;19920;-68
2023/03/19 14:28:43;;;;;;;;;;;12.40;99.90;;;;;;5054194;28;19928;-68
2023/03/19 14:31:24;;;;;;;;;;;12.50;99.90;;;;;;5052942;28;19982;-68